Main page
METAR-TAF:

METAR-TAF

Airports :

Harlan Municipal Airport

Harlan, Iowa, United States

latitude: 41-35-04N, longitude: 095-20-23W, elevation: 1230 ft

Current weather observation

The report was made 19 minutes ago, at 19:15 UTC
Wind 17 mph from the South/Southwest
Temperature 54°F
Humidity 47%
Pressure 30.01 in. Hg
Visibility: 10 miles
Clear sky

METAR: KHNR 281915Z AUTO 21015KT 10SM CLR 12/01 A3001 RMK AO2

Time: 13:34 (19:34 UTC)


TAF: missing

Weather observations and forecasts of more than 4000 airports (METAR and TAF reports).

The available stations are represented by yellow and red dots on the map.

Hover mouse over dot to see the name of the station.

Then click to see weather observations and forecasts.

To change the map : click on the green buttons with a black cross to zoom in, on the green button with a dash to zoom out, or on the green arrows for adjacent maps.


METAR-TAF: